Time;durP1;ratioP1;P1;durP2;ratioP2;P2;SDS_P1;SDS_P2;PMS_P1;PMS_P2;Temp;Humidity;BMP_temperature;BMP_pressure;BME280_temperature;BME280_humidity;BME280_pressure;Samples;Min_cycle;Max_cycle;Signal;HPM_P1;HPM_P2
2022/11/11 00:01:32;;;;;;;51.55;23.95;;;;;;;7.73;82.58;99809.66;5114019;27;20117;-72
2022/11/11 00:04:16;;;;;;;44.88;26.38;;;;;;;7.74;82.44;99802.56;5106556;27;20089;-72
2022/11/11 00:06:59;;;;;;;44.05;23.88;;;;;;;7.71;82.91;99810.69;5105382;27;20124;-74
2022/11/11 00:09:42;;;;;;;46.63;23.58;;;;;;;7.70;82.87;99801.88;5079808;27;20043;-70
2022/11/11 00:12:27;;;;;;;41.72;21.58;;;;;;;7.72;83.07;99791.16;5087754;27;20050;-67
2022/11/11 00:15:11;;;;;;;43.13;23.60;;;;;;;7.78;83.00;99796.16;5095706;27;20046;-67
2022/11/11 00:27:04;;;;;;;40.53;21.23;;;;;;;7.74;82.61;99791.94;5096213;27;20035;-67
2022/11/11 00:29:47;;;;;;;37.20;22.95;;;;;;;7.69;82.20;99789.53;5079708;28;20039;-66
2022/11/11 00:32:32;;;;;;;41.17;21.02;;;;;;;7.67;83.27;99779.97;5102240;27;20038;-67
2022/11/11 00:41:23;;;;;;;33.45;19.45;;;;;;;7.64;84.51;99792.47;5106161;27;20123;-66
2022/11/11 00:44:06;;;;;;;42.75;22.42;;;;;;;7.65;83.92;99791.53;5094751;27;20031;-69
2022/11/11 00:52:52;;;;;;;38.13;18.38;;;;;;;7.78;83.59;99777.56;5098946;27;20526;-71
2022/11/11 00:55:36;;;;;;;37.45;20.25;;;;;;;7.69;83.73;99780.72;5099200;27;20035;-68
2022/11/11 00:58:19;;;;;;;35.03;19.70;;;;;;;7.65;84.26;99777.41;5098650;27;20043;-67
2022/11/11 01:01:02;;;;;;;38.72;20.15;;;;;;;7.65;84.40;99780.06;5080979;27;20059;-70
2022/11/11 01:03:45;;;;;;;39.13;20.58;;;;;;;7.67;84.67;99778.19;5099619;27;20046;-67
2022/11/11 01:06:29;;;;;;;36.13;19.98;;;;;;;7.71;84.10;99777.06;5080840;27;20035;-71
2022/11/11 01:09:12;;;;;;;36.47;19.98;;;;;;;7.68;84.89;99779.00;5080534;27;20127;-70
2022/11/11 01:11:55;;;;;;;32.28;17.80;;;;;;;7.73;84.66;99769.88;5080800;27;20107;-69
2022/11/11 01:14:38;;;;;;;37.08;22.30;;;;;;;7.72;84.81;99776.09;5100226;27;20123;-68
2022/11/11 01:17:21;;;;;;;33.78;18.40;;;;;;;7.69;84.44;99775.41;5075741;27;20046;-69
2022/11/11 01:20:04;;;;;;;35.00;18.17;;;;;;;7.61;85.31;99779.38;5084595;27;20034;-69
2022/11/11 01:22:48;;;;;;;35.90;19.17;;;;;;;7.60;85.36;99775.00;5104657;27;20059;-73
2022/11/11 01:25:39;;;;;;;36.42;18.23;;;;;;;7.69;85.62;99778.94;5102380;27;20499;-70
2022/11/11 01:28:22;;;;;;;32.67;17.52;;;;;;;7.71;84.98;99781.50;5100092;27;20083;-69
2022/11/11 01:31:09;;;;;;;26.17;15.98;;;;;;;7.70;85.12;99782.44;5094267;27;20092;-69
2022/11/11 01:33:52;;;;;;;29.80;15.85;;;;;;;7.71;84.50;99781.50;5097702;27;20043;-69
2022/11/11 01:36:36;;;;;;;30.73;16.92;;;;;;;7.70;84.21;99774.47;5118241;27;20047;-67
2022/11/11 01:39:19;;;;;;;30.80;18.75;;;;;;;7.60;84.69;99776.81;5112708;27;20039;-68
2022/11/11 01:42:02;;;;;;;34.17;18.20;;;;;;;7.59;85.27;99783.91;5117324;27;20098;-68
2022/11/11 01:44:47;;;;;;;24.77;14.50;;;;;;;7.58;85.37;99781.34;5115435;27;20409;-68
2022/11/11 01:49:17;;;;;;;25.23;15.15;;;;;;;7.64;85.46;99781.00;5101856;27;20489;-67
2022/11/11 01:50:33;;;;;;;28.77;16.42;;;;;;;7.70;84.59;99779.78;5117792;27;20153;-69
2022/11/11 01:53:16;;;;;;;26.02;15.75;;;;;;;7.67;84.38;99780.84;5117830;27;20081;-69
2022/11/11 01:56:01;;;;;;;26.67;14.65;;;;;;;7.62;85.01;99789.06;5098173;27;20042;-67
2022/11/11 01:58:44;;;;;;;21.73;13.80;;;;;;;7.60;84.82;99782.97;5095554;27;20072;-73
2022/11/11 02:01:28;;;;;;;25.60;13.45;;;;;;;7.61;85.33;99783.81;5082457;27;20046;-72
2022/11/11 02:07:13;;;;;;;25.60;14.68;;;;;;;7.63;85.47;99793.41;5098866;27;20046;-72
2022/11/11 02:09:57;;;;;;;23.08;13.48;;;;;;;7.61;85.37;99810.34;5082441;27;20046;-72
2022/11/11 02:15:43;;;;;;;26.02;14.63;;;;;;;7.54;86.07;99771.88;5098264;27;20130;-66
2022/11/11 02:18:26;;;;;;;20.95;14.00;;;;;;;7.51;86.37;99780.00;5100707;27;20035;-71
2022/11/11 02:21:22;;;;;;;23.08;12.75;;;;;;;7.54;86.59;99779.81;5105430;27;20043;-71
2022/11/11 02:24:08;;;;;;;26.23;13.15;;;;;;;7.56;86.64;99786.72;5106261;27;20043;-72
2022/11/11 02:26:54;;;;;;;21.58;12.57;;;;;;;7.56;86.49;99777.94;5114571;27;20041;-71
2022/11/11 02:29:39;;;;;;;21.67;12.25;;;;;;;7.56;86.79;99778.78;5090316;27;20043;-71
2022/11/11 02:32:22;;;;;;;25.08;12.52;;;;;;;7.60;86.75;99774.16;5111325;27;20034;-72
2022/11/11 02:35:29;;;;;;;21.20;11.55;;;;;;;7.67;86.72;99779.97;5118571;27;20038;-64
2022/11/11 02:38:13;;;;;;;18.45;11.93;;;;;;;7.65;86.41;99774.75;5096994;27;20079;-69
2022/11/11 02:43:58;;;;;;;19.17;11.38;;;;;;;7.62;86.34;99772.28;5097572;27;20046;-72
2022/11/11 02:46:42;;;;;;;17.63;10.40;;;;;;;7.64;86.64;99765.09;5104853;27;20046;-69
2022/11/11 02:49:25;;;;;;;15.55;10.00;;;;;;;7.65;87.00;99772.97;5096588;27;20039;-71
2022/11/11 02:52:08;;;;;;;15.10;10.60;;;;;;;7.66;86.86;99779.13;5112636;27;20080;-70
2022/11/11 02:54:52;;;;;;;17.25;9.40;;;;;;;7.69;86.63;99778.94;5106998;27;20039;-71
2022/11/11 02:57:35;;;;;;;15.68;10.13;;;;;;;7.71;86.35;99784.16;5097053;27;20038;-71
2022/11/11 03:00:18;;;;;;;14.10;9.70;;;;;;;7.68;86.61;99782.53;5105676;27;20034;-72
2022/11/11 03:03:01;;;;;;;19.52;10.68;;;;;;;7.66;86.47;99781.78;5088871;27;20043;-67
2022/11/11 03:05:44;;;;;;;14.90;9.45;;;;;;;7.62;86.56;99777.59;5096721;27;20039;-69
2022/11/11 03:08:27;;;;;;;16.67;9.95;;;;;;;7.61;86.83;99776.72;5096886;27;20043;-71
2022/11/11 03:11:10;;;;;;;18.55;9.55;;;;;;;7.66;86.83;99773.81;5096394;27;20151;-70
2022/11/11 03:13:58;;;;;;;20.83;11.23;;;;;;;7.72;86.58;99776.09;5097040;27;20035;-71
2022/11/11 03:19:43;;;;;;;15.63;10.02;;;;;;;7.74;86.97;99771.56;5098870;27;20504;-68
2022/11/11 03:22:28;;;;;;;15.48;9.52;;;;;;;7.73;86.62;99782.28;5077025;27;20065;-69
2022/11/11 03:28:16;;;;;;;15.48;9.63;;;;;;;7.67;87.13;99779.97;5099122;27;20102;-67
2022/11/11 03:30:59;;;;;;;15.50;9.23;;;;;;;7.69;87.29;99776.28;5080939;27;20046;-69
2022/11/11 03:33:43;;;;;;;16.33;9.02;;;;;;;7.75;87.01;99777.75;5074671;27;20042;-70
2022/11/11 03:38:14;;;;;;;18.42;9.30;;;;;;;7.77;87.11;99778.50;5061550;28;20097;-69
2022/11/11 03:39:30;;;;;;;15.48;8.98;;;;;;;7.73;87.21;99790.22;5065495;28;20506;-70
2022/11/11 03:42:13;;;;;;;14.70;8.77;;;;;;;7.77;87.37;99789.13;5053580;28;20044;-70
2022/11/11 03:44:57;;;;;;;14.85;8.60;;;;;;;7.78;87.01;99785.53;5053781;28;20587;-69
2022/11/11 03:47:40;;;;;;;17.05;8.88;;;;;;;7.79;86.84;99789.91;5067444;28;20047;-69
2022/11/11 03:50:23;;;;;;;15.32;9.00;;;;;;;7.80;86.99;99786.28;5053250;28;20048;-69
2022/11/11 03:53:06;;;;;;;14.68;8.90;;;;;;;7.80;86.87;99791.56;5052646;28;20074;-68
2022/11/11 03:55:50;;;;;;;16.00;9.05;;;;;;;7.77;86.73;99789.97;5052964;28;20052;-69
2022/11/11 03:58:33;;;;;;;18.98;8.68;;;;;;;7.77;86.16;99786.47;5052775;28;20035;-67
2022/11/11 04:10:22;;;;;;;13.07;8.20;;;;;;;7.79;85.96;99789.91;5096017;27;20516;-68
2022/11/11 04:16:08;;;;;;;15.02;9.15;;;;;;;7.79;85.83;99804.00;5108540;27;20050;-66
2022/11/11 04:21:54;;;;;;;15.50;10.35;;;;;;;7.70;86.12;99788.59;5096198;27;20506;-67
2022/11/11 04:27:39;;;;;;;19.67;10.15;;;;;;;7.61;86.75;99791.78;5101698;27;20070;-68
2022/11/11 04:30:22;;;;;;;13.30;8.40;;;;;;;7.59;86.71;99805.13;5084822;27;20039;-66
2022/11/11 04:33:05;;;;;;;15.68;8.23;;;;;;;7.68;86.54;99810.84;5101113;27;20039;-66
2022/11/11 04:35:49;;;;;;;11.95;8.18;;;;;;;7.67;86.54;99817.13;5100819;27;20138;-66
2022/11/11 04:41:34;;;;;;;16.08;8.90;;;;;;;7.67;86.37;99815.34;5100911;27;20130;-66
2022/11/11 04:47:19;;;;;;;12.88;8.18;;;;;;;7.73;86.50;99838.00;5114396;27;20051;-69
2022/11/11 04:50:04;;;;;;;12.38;8.02;;;;;;;7.75;86.37;99830.81;5114069;27;20035;-69
2022/11/11 04:52:47;;;;;;;11.52;7.82;;;;;;;7.75;86.33;99836.97;5100599;27;20132;-68
2022/11/11 04:58:34;;;;;;;13.48;7.40;;;;;;;7.72;86.57;99838.94;5101634;27;20489;-69
2022/11/11 05:03:14;;;;;;;12.65;8.02;;;;;;;7.69;86.27;99836.44;5107213;27;20034;-69
2022/11/11 05:04:19;;;;;;;14.73;8.10;;;;;;;7.72;86.77;99841.59;5108179;27;20133;-68
2022/11/11 05:10:06;;;;;;;10.30;7.03;;;;;;;7.63;86.84;99838.53;5105957;27;20121;-68
2022/11/11 05:12:49;;;;;;;13.23;8.00;;;;;;;7.69;86.84;99837.31;5121994;27;20045;-68
2022/11/11 05:21:35;;;;;;;10.73;7.47;;;;;;;7.68;86.86;99827.63;5102187;27;20701;-67
2022/11/11 05:27:20;;;;;;;12.13;7.70;;;;;;;7.70;86.51;99825.75;5098536;27;20043;-67
2022/11/11 05:30:06;;;;;;;12.25;7.43;;;;;;;7.77;86.55;99836.91;5099469;27;20523;-68
2022/11/11 05:32:50;;;;;;;10.55;7.13;;;;;;;7.71;86.46;99843.38;5101332;27;20076;-67
2022/11/11 05:35:35;;;;;;;12.23;7.10;;;;;;;7.80;86.51;99839.34;5082434;27;20050;-67
2022/11/11 05:38:21;;;;;;;;;;;;;;;7.96;86.21;99835.75;5083324;27;20046;-66
2022/11/11 05:41:05;;;;;;;10.52;7.55;;;;;;;7.80;85.48;99834.03;5098892;27;19960;-67
2022/11/11 05:43:48;;;;;;;10.50;7.55;;;;;;;7.76;85.98;99833.38;5098521;27;20067;-68
2022/11/11 05:46:33;;;;;;;10.43;6.30;;;;;;;7.81;86.45;99839.25;5070099;27;20520;-68
2022/11/11 05:49:16;;;;;;;11.48;7.50;;;;;;;7.81;86.12;99836.63;5079743;27;20046;-66
2022/11/11 05:52:00;;;;;;;11.00;6.85;;;;;;;7.92;86.16;99843.97;5098098;27;20143;-67
2022/11/11 05:54:44;;;;;;;11.60;8.00;;;;;;;7.93;86.09;99848.31;5098022;27;20126;-68
2022/11/11 05:57:27;;;;;;;11.65;6.78;;;;;;;7.92;85.70;99854.56;5098802;27;20455;-68
2022/11/11 06:00:11;;;;;;;10.50;7.15;;;;;;;7.95;85.55;99857.06;5080253;27;20067;-69
2022/11/11 06:03:01;;;;;;;10.57;7.07;;;;;;;7.99;85.79;99867.44;5082628;27;20051;-68
2022/11/11 06:05:44;;;;;;;12.68;7.82;;;;;;;8.02;85.37;99861.94;5079358;27;20039;-67
2022/11/11 06:08:27;;;;;;;12.93;7.10;;;;;;;8.00;85.15;99862.97;5079213;27;20035;-67
2022/11/11 06:11:11;;;;;;;12.80;7.85;;;;;;;8.08;85.41;99858.06;5097730;27;20043;-67
2022/11/11 06:13:54;;;;;;;10.23;6.88;;;;;;;8.13;85.14;99863.97;5082247;27;20133;-66
2022/11/11 06:16:37;;;;;;;10.45;6.97;;;;;;;8.09;84.65;99867.75;5097110;27;20050;-66
2022/11/11 06:19:20;;;;;;;11.52;7.43;;;;;;;8.09;84.29;99877.53;5079177;27;20054;-66
2022/11/11 06:22:03;;;;;;;11.68;7.50;;;;;;;8.07;84.15;99874.94;5099025;27;20087;-68
2022/11/11 06:26:11;;;;;;;10.27;6.80;;;;;;;8.03;84.43;99886.69;5097464;27;20053;-66
2022/11/11 06:27:50;;;;;;;11.00;7.80;;;;;;;8.02;84.73;99879.66;5097108;27;20157;-67
2022/11/11 06:30:33;;;;;;;14.73;8.52;;;;;;;8.00;84.38;99885.06;5097531;27;20027;-66
2022/11/11 06:33:17;;;;;;;10.10;6.72;;;;;;;8.10;84.40;99887.19;5097217;27;20139;-67
2022/11/11 06:36:01;;;;;;;12.07;7.63;;;;;;;8.08;84.36;99884.63;5097259;27;20469;-67
2022/11/11 06:38:45;;;;;;;14.07;7.03;;;;;;;8.10;84.05;99888.06;5081278;27;20470;-68
2022/11/11 06:41:28;;;;;;;11.10;6.60;;;;;;;8.11;83.70;99875.63;5097129;27;20038;-68
2022/11/11 06:44:11;;;;;;;15.20;7.70;;;;;;;8.11;83.85;99880.94;5097063;27;20150;-67
2022/11/11 06:46:55;;;;;;;11.05;7.00;;;;;;;8.12;83.89;99874.69;5087362;27;20126;-67
2022/11/11 06:49:37;;;;;;;13.43;8.52;;;;;;;8.15;83.91;99871.84;5098796;27;20447;-67
2022/11/11 06:52:21;;;;;;;12.70;7.15;;;;;;;8.21;84.20;99888.28;5096742;27;20043;-67
2022/11/11 06:55:04;;;;;;;12.30;7.03;;;;;;;8.28;84.08;99891.44;5097152;27;20053;-69
2022/11/11 06:57:47;;;;;;;13.52;7.07;;;;;;;8.21;83.57;99882.13;5096854;27;20046;-69
2022/11/11 07:00:31;;;;;;;10.68;6.93;;;;;;;8.30;83.57;99884.25;5097154;27;20038;-67
2022/11/11 07:03:16;;;;;;;10.75;6.88;;;;;;;8.33;83.52;99889.41;5096730;27;20047;-68
2022/11/11 07:06:00;;;;;;;14.38;8.45;;;;;;;8.30;83.03;99893.06;5081097;27;20054;-68
2022/11/11 07:08:44;;;;;;;9.27;6.88;;;;;;;8.21;83.31;99890.94;5096920;27;20043;-71
2022/11/11 07:11:27;;;;;;;14.00;7.72;;;;;;;8.16;83.36;99898.31;5096936;27;20078;-68
2022/11/11 07:14:10;;;;;;;12.48;7.90;;;;;;;8.22;83.28;99897.97;5096548;27;20435;-68
2022/11/11 07:16:54;;;;;;;11.82;7.90;;;;;;;8.26;83.42;99891.53;5096569;27;20046;-69
2022/11/11 07:19:38;;;;;;;12.40;7.82;;;;;;;8.29;83.06;99898.47;5080839;27;20035;-69
2022/11/11 07:22:21;;;;;;;12.98;8.05;;;;;;;8.36;82.98;99898.03;5096339;27;20054;-68
2022/11/11 07:25:04;;;;;;;13.27;8.48;;;;;;;8.38;82.74;99908.59;5077783;27;20087;-68
2022/11/11 07:27:48;;;;;;;17.02;8.25;;;;;;;8.32;82.71;99899.19;5079190;27;20042;-69
2022/11/11 07:30:31;;;;;;;15.30;8.02;;;;;;;8.38;82.75;99901.47;5116408;27;20039;-69
2022/11/11 07:33:14;;;;;;;12.77;8.88;;;;;;;8.41;82.55;99911.06;5103167;27;20074;-68
2022/11/11 07:35:57;;;;;;;15.57;8.05;;;;;;;8.45;82.47;99917.06;5095919;27;20042;-69
2022/11/11 07:38:41;;;;;;;15.02;8.70;;;;;;;8.55;82.66;99915.59;5077220;27;20138;-69
2022/11/11 07:41:24;;;;;;;20.30;9.45;;;;;;;8.56;82.06;99914.63;5095863;27;20826;-68
2022/11/11 07:44:07;;;;;;;15.05;9.13;;;;;;;8.57;82.04;99919.00;5096089;27;20426;-68
2022/11/11 07:46:50;;;;;;;13.75;8.23;;;;;;;8.62;82.06;99919.56;5096106;27;20043;-68
2022/11/11 07:49:34;;;;;;;20.15;10.05;;;;;;;8.58;82.08;99921.56;5096027;27;20031;-67
2022/11/11 07:52:17;;;;;;;14.95;9.02;;;;;;;8.59;81.90;99923.25;5080577;27;20916;-67
2022/11/11 07:55:00;;;;;;;14.75;9.77;;;;;;;8.65;81.91;99928.25;5095904;27;20054;-69
2022/11/11 07:57:44;;;;;;;17.85;9.02;;;;;;;8.69;81.92;99926.25;5096035;27;20039;-69
2022/11/11 08:00:27;;;;;;;16.23;9.70;;;;;;;8.67;81.49;99930.81;5096057;27;20043;-68
2022/11/11 08:03:10;;;;;;;16.38;10.65;;;;;;;8.71;81.99;99927.00;5076970;27;20070;-70
2022/11/11 08:05:56;;;;;;;16.23;9.30;;;;;;;8.79;81.51;99938.06;5098505;27;20039;-68
2022/11/11 08:08:39;;;;;;;13.73;8.93;;;;;;;8.73;81.08;99931.28;5062821;28;20043;-69
2022/11/11 08:14:25;;;;;;;17.45;10.02;;;;;;;8.76;80.70;99927.59;5097143;27;20125;-69
2022/11/11 08:17:08;;;;;;;17.58;9.65;;;;;;;8.82;81.27;99926.34;5095676;27;20043;-68
2022/11/11 08:19:51;;;;;;;12.45;8.60;;;;;;;8.88;81.08;99920.69;5095595;27;20178;-68
2022/11/11 08:22:39;;;;;;;15.95;9.63;;;;;;;8.94;81.20;99921.16;5079953;28;20561;-69
2022/11/11 08:25:22;;;;;;;14.15;9.38;;;;;;;8.86;80.55;99918.13;5095811;27;20043;-69
2022/11/11 08:28:05;;;;;;;17.88;9.48;;;;;;;8.88;80.44;99910.91;5096026;27;20039;-69
2022/11/11 08:30:49;;;;;;;15.82;9.52;;;;;;;8.86;80.54;99911.94;5077955;28;20158;-69
2022/11/11 08:33:32;;;;;;;14.27;9.73;;;;;;;8.79;80.53;99905.31;5081509;27;20043;-69
2022/11/11 08:36:15;;;;;;;21.50;9.85;;;;;;;8.74;80.50;99898.44;5096987;27;20043;-69
2022/11/11 08:38:58;;;;;;;19.55;10.75;;;;;;;8.71;80.88;99914.56;5098731;27;20042;-70
2022/11/11 08:41:41;;;;;;;20.33;9.80;;;;;;;8.79;80.80;99910.63;5101232;27;20042;-70
2022/11/11 08:44:25;;;;;;;14.63;9.00;;;;;;;8.86;81.13;99917.25;5085884;28;20039;-70
2022/11/11 08:47:08;;;;;;;17.17;9.40;;;;;;;8.90;80.73;99908.16;5096159;27;20050;-72
2022/11/11 08:49:51;;;;;;;13.93;8.55;;;;;;;8.87;80.56;99895.06;5104818;27;20043;-71
2022/11/11 08:52:34;;;;;;;13.32;8.65;;;;;;;8.84;80.36;99904.06;5104861;27;20130;-69
2022/11/11 08:55:18;;;;;;;14.27;8.10;;;;;;;8.89;80.16;99901.13;5079622;28;20047;-69
2022/11/11 08:58:04;;;;;;;15.75;8.07;;;;;;;8.88;80.13;99912.72;5097549;27;20406;-70
2022/11/11 09:00:47;;;;;;;13.07;7.28;;;;;;;8.93;80.47;99914.13;5096284;27;20035;-70
2022/11/11 09:03:30;;;;;;;12.68;8.15;;;;;;;8.91;79.93;99916.06;5096967;27;20055;-68
2022/11/11 09:06:14;;;;;;;13.75;8.55;;;;;;;8.95;80.42;99912.25;5097620;27;20038;-68
2022/11/11 09:08:57;;;;;;;16.83;9.13;;;;;;;9.01;79.94;99911.03;5100124;27;20038;-68
2022/11/11 09:11:40;;;;;;;12.93;8.43;;;;;;;8.99;79.74;99912.94;5103236;27;20484;-69
2022/11/11 09:14:23;;;;;;;14.43;8.38;;;;;;;8.96;79.86;99903.31;5111026;27;20541;-69
2022/11/11 09:17:07;;;;;;;13.52;8.63;;;;;;;8.97;79.79;99912.16;5087134;27;20515;-69
2022/11/11 09:19:51;;;;;;;14.60;8.27;;;;;;;8.98;79.49;99911.22;5101817;27;20050;-70
2022/11/11 09:22:44;;;;;;;13.57;8.25;;;;;;;9.11;79.88;99906.88;5086678;27;20059;-70
2022/11/11 09:25:27;;;;;;;12.88;8.70;;;;;;;9.12;79.63;99913.03;5086583;27;20035;-71
2022/11/11 09:28:10;;;;;;;13.27;7.80;;;;;;;9.08;79.08;99907.91;5100864;27;20035;-67
2022/11/11 09:30:54;;;;;;;12.93;7.95;;;;;;;9.05;79.28;99928.50;5099383;27;20039;-69
2022/11/11 09:33:37;;;;;;;11.93;8.25;;;;;;;9.06;79.23;99925.75;5099535;27;20042;-75
2022/11/11 09:36:21;;;;;;;10.88;8.18;;;;;;;9.13;79.55;99931.56;5083990;27;20043;-68
2022/11/11 09:39:04;;;;;;;13.85;9.00;;;;;;;9.12;79.38;99923.69;5099020;27;20042;-69
2022/11/11 09:42:20;;;;;;;13.48;8.10;;;;;;;9.22;79.44;99919.50;5100796;27;20034;-67
2022/11/11 09:45:19;;;;;;;14.43;8.27;;;;;;;9.09;79.06;99930.03;5045393;28;20052;-69
2022/11/11 09:48:05;;;;;;;12.55;8.07;;;;;;;9.10;79.26;99927.28;5043201;28;20064;-68
2022/11/11 09:50:54;;;;;;;10.63;7.43;;;;;;;9.11;78.96;99925.47;5043851;28;20059;-70
2022/11/11 09:53:46;;;;;;;12.27;7.78;;;;;;;9.12;79.14;99934.31;5029132;28;20096;-70
2022/11/11 09:56:31;;;;;;;13.27;7.63;;;;;;;9.10;78.54;99934.41;5031862;28;20063;-69
2022/11/11 09:59:20;;;;;;;;;;;;;;;9.13;78.47;99926.25;5041959;28;20048;-71
2022/11/11 10:02:14;;;;;;;10.95;7.40;;;;;;;9.02;79.32;99934.03;5007620;28;19959;-70
2022/11/11 10:05:09;;;;;;;11.15;7.68;;;;;;;9.04;79.67;99938.28;5036063;28;20116;-70
2022/11/11 10:07:59;;;;;;;;;;;;;;;9.19;79.25;99928.50;5037422;28;20044;-69
2022/11/11 10:10:46;;;;;;;12.63;7.38;;;;;;;9.16;79.40;99941.13;5037779;28;20042;-68
2022/11/11 10:13:32;;;;;;;11.65;7.05;;;;;;;9.17;78.92;99945.50;5024045;28;20083;-69
2022/11/11 10:16:21;;;;;;;11.60;7.72;;;;;;;9.19;78.91;99939.16;5021981;28;20144;-69
2022/11/11 10:19:22;;;;;;;11.15;7.75;;;;;;;9.22;78.98;99948.75;5022711;28;20037;-68
2022/11/11 10:22:18;;;;;;;10.45;6.97;;;;;;;9.25;78.73;99951.25;5098084;27;20051;-70
2022/11/11 10:25:15;;;;;;;11.45;6.97;;;;;;;9.26;78.70;99942.28;5098146;27;20043;-69
2022/11/11 10:28:01;;;;;;;12.27;6.93;;;;;;;9.16;78.95;99949.97;5082468;27;20047;-69
2022/11/11 10:30:46;;;;;;;13.48;8.40;;;;;;;9.13;79.20;99957.31;5098595;27;20118;-70
2022/11/11 10:33:32;;;;;;;11.65;6.95;;;;;;;9.18;79.37;99953.41;5097806;27;20038;-70
2022/11/11 10:36:22;;;;;;;11.25;7.75;;;;;;;9.21;79.61;99963.00;5097748;27;20125;-69
2022/11/11 10:39:12;;;;;;;11.95;7.78;;;;;;;9.18;78.86;99965.84;5097155;27;20034;-69
2022/11/11 10:41:55;;;;;;;19.30;8.13;;;;;;;9.18;79.17;99965.84;5079384;27;20447;-68
2022/11/11 10:44:38;;;;;;;13.10;7.90;;;;;;;9.23;79.20;99971.75;5090501;27;20508;-69
2022/11/11 10:47:27;;;;;;;12.68;8.52;;;;;;;9.27;79.10;99973.25;5092031;27;20042;-70
2022/11/11 10:50:22;;;;;;;10.82;7.63;;;;;;;9.23;79.48;99975.28;5108623;27;20051;-69
2022/11/11 10:53:28;;;;;;;14.30;8.55;;;;;;;9.21;79.44;99969.19;5085952;27;20090;-69
2022/11/11 10:56:44;;;;;;;12.02;8.38;;;;;;;9.18;79.70;99971.16;5097831;27;20057;-68
2022/11/11 10:59:53;;;;;;;21.08;8.43;;;;;;;9.19;79.83;99971.06;5089652;27;20043;-73
2022/11/11 11:02:58;;;;;;;11.70;7.68;;;;;;;9.28;79.61;99972.31;5080190;27;20055;-70
2022/11/11 11:05:52;;;;;;;10.75;7.53;;;;;;;9.25;79.02;99973.38;5096743;27;20038;-69
2022/11/11 11:08:56;;;;;;;13.15;7.72;;;;;;;9.25;79.34;99973.38;5115615;27;20042;-70
2022/11/11 11:11:58;;;;;;;13.55;8.38;;;;;;;9.16;79.66;99975.72;5096807;27;20035;-73
2022/11/11 11:14:49;;;;;;;12.27;8.27;;;;;;;9.18;79.62;99979.16;5096210;27;20039;-71
2022/11/11 11:17:49;;;;;;;11.60;7.35;;;;;;;9.18;80.10;99981.81;5114326;27;20042;-69
2022/11/11 11:20:33;;;;;;;11.85;7.03;;;;;;;9.20;79.69;99990.56;5106104;27;20121;-70
2022/11/11 11:23:35;;;;;;;11.23;7.72;;;;;;;9.26;79.74;99996.34;5083047;27;20051;-71
2022/11/11 11:26:18;;;;;;;15.25;8.52;;;;;;;9.13;79.56;99990.09;5109824;27;20415;-71
2022/11/11 11:29:02;;;;;;;10.13;7.47;;;;;;;9.13;79.91;99994.53;5099892;27;20114;-72
2022/11/11 11:31:46;;;;;;;12.55;7.00;;;;;;;9.12;79.75;100006.97;5097812;27;20115;-74
2022/11/11 11:34:42;;;;;;;9.73;7.13;;;;;;;9.21;80.06;100005.56;5100551;27;20042;-75
2022/11/11 11:37:26;;;;;;;14.23;7.88;;;;;;;9.14;80.06;100007.75;5084226;27;20039;-75
2022/11/11 11:40:09;;;;;;;13.27;8.25;;;;;;;9.08;79.84;100003.63;5096299;27;20045;-75
2022/11/11 11:42:52;;;;;;;14.90;8.88;;;;;;;9.12;79.81;100008.78;5077650;27;20528;-76
2022/11/11 11:45:36;;;;;;;10.00;7.32;;;;;;;9.16;80.21;99997.84;5097061;27;20409;-76
2022/11/11 11:48:48;;;;;;;10.73;6.63;;;;;;;9.18;80.08;99995.09;5099189;27;20046;-73
2022/11/11 11:51:39;;;;;;;10.57;6.88;;;;;;;9.15;80.04;99998.78;5096679;27;20043;-73
2022/11/11 11:54:46;;;;;;;12.45;7.85;;;;;;;9.15;80.06;100000.59;5101499;27;20044;-75
2022/11/11 11:57:56;;;;;;;13.43;7.90;;;;;;;9.16;80.71;99997.00;5012815;28;20401;-73
2022/11/11 12:01:15;;;;;;;13.07;7.88;;;;;;;8.98;80.51;99986.53;5018917;28;20041;-75
2022/11/11 12:04:35;;;;;;;12.98;7.78;;;;;;;9.05;81.28;99982.53;5014606;28;20051;-71
2022/11/11 12:07:31;;;;;;;12.57;7.38;;;;;;;8.96;81.39;99987.56;5014197;28;20029;-73
2022/11/11 12:10:17;;;;;;;16.00;8.13;;;;;;;8.99;81.78;99990.03;4996116;28;20581;-74
2022/11/11 12:13:29;;;;;;;15.00;9.07;;;;;;;9.06;81.30;99983.41;5015658;28;20056;-72
2022/11/11 12:16:25;;;;;;;13.18;7.45;;;;;;;9.04;81.29;99990.59;4994939;28;20099;-74
2022/11/11 12:19:33;;;;;;;9.15;6.07;;;;;;;9.03;81.48;99984.44;5011197;28;20041;-76
2022/11/11 12:22:17;;;;;;;13.02;6.78;;;;;;;9.02;81.04;99971.25;4987343;28;20049;-74
2022/11/11 12:25:50;;;;;;;12.93;6.75;;;;;;;9.13;81.53;99978.59;4992116;28;20041;-72
2022/11/11 12:28:39;;;;;;;9.98;6.72;;;;;;;9.14;81.23;99972.31;4938811;28;20053;-74
2022/11/11 12:31:55;;;;;;;14.48;7.32;;;;;;;9.17;81.25;99966.78;4953828;28;20054;-69
2022/11/11 12:34:38;;;;;;;11.80;7.43;;;;;;;9.12;81.28;99972.41;4960163;28;20047;-68
2022/11/11 12:37:44;;;;;;;14.45;7.85;;;;;;;9.11;81.20;99970.69;5026907;28;20841;-71
2022/11/11 12:40:42;;;;;;;9.70;6.78;;;;;;;9.05;81.30;99971.03;5023091;28;20029;-68
2022/11/11 12:43:51;;;;;;;10.60;7.47;;;;;;;9.09;81.13;99970.78;5018130;28;20049;-68
2022/11/11 12:47:01;;;;;;;10.88;7.57;;;;;;;9.06;81.36;99970.09;5016772;28;20037;-71
2022/11/11 12:49:47;;;;;;;14.70;7.55;;;;;;;9.01;81.61;99970.41;5030363;28;20047;-71
2022/11/11 12:52:56;;;;;;;8.45;6.57;;;;;;;9.05;81.42;99966.59;5032854;28;20064;-68
2022/11/11 12:56:06;;;;;;;11.00;7.28;;;;;;;9.05;81.95;99965.72;5027328;28;20581;-69
2022/11/11 12:59:03;;;;;;;10.63;7.25;;;;;;;9.07;81.78;99969.16;5017047;28;20061;-69
2022/11/11 13:02:10;;;;;;;12.68;7.43;;;;;;;9.07;81.67;99975.34;5000043;28;20044;-68
2022/11/11 13:05:09;;;;;;;11.65;6.65;;;;;;;9.07;81.36;99974.47;5072180;28;20055;-69
2022/11/11 13:08:03;;;;;;;11.50;7.57;;;;;;;9.08;81.38;99971.72;5063125;28;20051;-69
2022/11/11 13:11:14;;;;;;;11.57;6.97;;;;;;;9.10;81.65;99967.19;5078623;28;20043;-68
2022/11/11 13:14:06;;;;;;;13.18;7.13;;;;;;;9.16;81.34;99962.41;5078512;28;20043;-68
2022/11/11 13:16:50;;;;;;;12.32;7.72;;;;;;;9.07;81.19;99970.00;5060168;28;20035;-68
2022/11/11 13:19:43;;;;;;;;;;;;;;;9.19;80.75;99970.22;5060746;28;20047;-68
2022/11/11 13:22:30;;;;;;;9.15;6.45;;;;;;;9.07;80.63;99970.00;5088209;27;19919;-69
2022/11/11 13:25:20;;;;;;;11.35;6.88;;;;;;;9.03;80.82;99973.78;5081332;27;20107;-67
2022/11/11 13:28:15;;;;;;;9.52;6.20;;;;;;;9.09;81.10;99968.13;5099967;27;20039;-69
2022/11/11 13:31:30;;;;;;;;;;;;;;;9.12;80.80;99961.78;5083913;27;20049;-68
2022/11/11 13:34:14;;;;;;;11.27;7.43;;;;;;;9.12;80.58;99971.56;5022334;28;19923;-67
2022/11/11 13:36:58;;;;;;;9.13;5.80;;;;;;;9.08;80.45;99969.06;5035773;28;20048;-67
2022/11/11 13:39:50;;;;;;;8.85;5.97;;;;;;;9.09;80.42;99973.44;5036008;28;20286;-68
2022/11/11 13:42:40;;;;;;;9.15;5.57;;;;;;;9.15;80.10;99977.53;5036060;28;20028;-68
2022/11/11 13:45:42;;;;;;;12.25;5.68;;;;;;;9.14;80.31;99980.31;5036587;28;20064;-70
2022/11/11 13:48:30;;;;;;;12.40;5.88;;;;;;;9.09;80.25;99989.41;5007172;28;20083;-68
2022/11/11 13:51:30;;;;;;;8.00;5.70;;;;;;;9.12;79.18;99987.50;5036171;28;20048;-68
2022/11/11 13:54:28;;;;;;;11.75;6.07;;;;;;;9.16;79.79;99983.69;5037436;28;20048;-70
2022/11/11 13:57:13;;;;;;;10.23;5.55;;;;;;;9.09;79.41;99976.09;5027726;28;20049;-69
2022/11/11 14:00:00;;;;;;;11.18;5.63;;;;;;;9.12;79.21;99974.22;5036650;28;20826;-68
2022/11/11 14:02:44;;;;;;;9.77;6.40;;;;;;;9.05;79.38;99974.56;5008598;28;20049;-68
2022/11/11 14:05:28;;;;;;;8.40;5.97;;;;;;;9.06;79.03;99972.75;5011560;28;20041;-68
2022/11/11 14:08:45;;;;;;;10.38;6.43;;;;;;;9.08;79.56;99966.41;5036735;28;20135;-68
2022/11/11 14:11:34;;;;;;;10.27;5.10;;;;;;;9.00;78.50;99978.47;5101579;27;20043;-70
2022/11/11 14:14:35;;;;;;;8.43;5.47;;;;;;;9.04;79.03;99986.16;5105963;27;20069;-68
2022/11/11 14:17:19;;;;;;;8.30;5.25;;;;;;;9.03;78.98;99979.09;5084915;27;20042;-68
2022/11/11 14:20:39;;;;;;;7.47;5.18;;;;;;;9.16;78.36;99979.22;5084191;27;20071;-71
2022/11/11 14:23:36;;;;;;;9.15;5.43;;;;;;;9.17;78.72;99982.75;5032834;28;20143;-68
2022/11/11 14:26:23;;;;;;;8.00;5.47;;;;;;;9.08;77.19;99982.38;5035757;28;20040;-70
2022/11/11 14:29:17;;;;;;;11.60;5.78;;;;;;;9.18;77.63;99971.16;5042015;28;20047;-69
2022/11/11 14:32:14;;;;;;;6.97;4.88;;;;;;;9.20;77.26;99969.28;5028586;28;20056;-68